sensor_id;sensor_type;location;lat;lon;timestamp;pressure;altitude;pressure_sealevel;temperature
74321;BMP280;62738;45.772;4.804;2023-07-22T00:02:24;99699.50;;;22.99
74321;BMP280;62738;45.772;4.804;2023-07-22T00:04:51;99718.41;;;22.71
74321;BMP280;62738;45.772;4.804;2023-07-22T00:07:18;99707.38;;;22.60
74321;BMP280;62738;45.772;4.804;2023-07-22T00:09:45;99698.97;;;22.62
74321;BMP280;62738;45.772;4.804;2023-07-22T00:12:12;99702.50;;;22.62
74321;BMP280;62738;45.772;4.804;2023-07-22T00:14:40;99699.97;;;22.70
74321;BMP280;62738;45.772;4.804;2023-07-22T00:17:07;99697.50;;;22.61
74321;BMP280;62738;45.772;4.804;2023-07-22T00:19:34;99697.47;;;22.80
74321;BMP280;62738;45.772;4.804;2023-07-22T00:22:01;99694.31;;;22.92
74321;BMP280;62738;45.772;4.804;2023-07-22T00:24:28;99692.53;;;23.03
74321;BMP280;62738;45.772;4.804;2023-07-22T00:26:55;99690.16;;;22.95
74321;BMP280;62738;45.772;4.804;2023-07-22T00:29:22;99682.00;;;23.05
74321;BMP280;62738;45.772;4.804;2023-07-22T00:31:49;99688.38;;;23.06
74321;BMP280;62738;45.772;4.804;2023-07-22T00:34:15;99678.31;;;22.79
74321;BMP280;62738;45.772;4.804;2023-07-22T00:36:43;99679.50;;;22.72
74321;BMP280;62738;45.772;4.804;2023-07-22T00:39:10;99681.97;;;22.81
74321;BMP280;62738;45.772;4.804;2023-07-22T00:41:40;99678.13;;;22.51
74321;BMP280;62738;45.772;4.804;2023-07-22T00:44:09;99681.75;;;22.54
74321;BMP280;62738;45.772;4.804;2023-07-22T00:46:36;99678.91;;;22.75
74321;BMP280;62738;45.772;4.804;2023-07-22T00:49:05;99687.53;;;22.79
74321;BMP280;62738;45.772;4.804;2023-07-22T00:51:32;99688.94;;;22.78
74321;BMP280;62738;45.772;4.804;2023-07-22T00:53:59;99685.22;;;22.95
74321;BMP280;62738;45.772;4.804;2023-07-22T00:56:26;99680.09;;;23.12
74321;BMP280;62738;45.772;4.804;2023-07-22T00:58:53;99682.94;;;23.12
74321;BMP280;62738;45.772;4.804;2023-07-22T01:04:02;99690.09;;;23.15
74321;BMP280;62738;45.772;4.804;2023-07-22T01:06:31;99685.94;;;23.18
74321;BMP280;62738;45.772;4.804;2023-07-22T01:08:57;99697.22;;;23.39
74321;BMP280;62738;45.772;4.804;2023-07-22T01:11:25;99695.78;;;23.38
74321;BMP280;62738;45.772;4.804;2023-07-22T01:13:52;99701.50;;;23.40
74321;BMP280;62738;45.772;4.804;2023-07-22T01:16:26;99705.00;;;23.39
74321;BMP280;62738;45.772;4.804;2023-07-22T01:18:53;99708.09;;;23.47
74321;BMP280;62738;45.772;4.804;2023-07-22T01:21:24;99695.59;;;23.56
74321;BMP280;62738;45.772;4.804;2023-07-22T01:23:51;99694.75;;;23.51
74321;BMP280;62738;45.772;4.804;2023-07-22T01:26:18;99699.63;;;23.49
74321;BMP280;62738;45.772;4.804;2023-07-22T01:28:45;99699.63;;;23.49
74321;BMP280;62738;45.772;4.804;2023-07-22T01:31:12;99698.13;;;23.46
74321;BMP280;62738;45.772;4.804;2023-07-22T01:33:38;99689.75;;;23.50
74321;BMP280;62738;45.772;4.804;2023-07-22T01:36:05;99694.06;;;23.53
74321;BMP280;62738;45.772;4.804;2023-07-22T01:38:32;99688.50;;;23.55
74321;BMP280;62738;45.772;4.804;2023-07-22T01:40:59;99682.19;;;23.57
74321;BMP280;62738;45.772;4.804;2023-07-22T01:43:26;99684.31;;;23.58
74321;BMP280;62738;45.772;4.804;2023-07-22T01:45:52;99679.91;;;23.53
74321;BMP280;62738;45.772;4.804;2023-07-22T01:48:19;99676.16;;;23.44
74321;BMP280;62738;45.772;4.804;2023-07-22T01:50:48;99672.03;;;23.26
74321;BMP280;62738;45.772;4.804;2023-07-22T01:53:15;99670.88;;;23.35
74321;BMP280;62738;45.772;4.804;2023-07-22T01:55:42;99671.66;;;23.14
74321;BMP280;62738;45.772;4.804;2023-07-22T01:58:08;99674.59;;;23.16
74321;BMP280;62738;45.772;4.804;2023-07-22T02:00:35;99677.94;;;23.10
74321;BMP280;62738;45.772;4.804;2023-07-22T02:03:02;99686.97;;;23.05
74321;BMP280;62738;45.772;4.804;2023-07-22T02:05:30;99679.38;;;23.11
74321;BMP280;62738;45.772;4.804;2023-07-22T02:07:57;99684.72;;;23.01
74321;BMP280;62738;45.772;4.804;2023-07-22T02:10:25;99682.34;;;22.93
74321;BMP280;62738;45.772;4.804;2023-07-22T02:12:51;99695.53;;;22.65
74321;BMP280;62738;45.772;4.804;2023-07-22T02:15:18;99714.09;;;22.29
74321;BMP280;62738;45.772;4.804;2023-07-22T02:17:45;99697.47;;;22.00
74321;BMP280;62738;45.772;4.804;2023-07-22T02:20:12;99699.38;;;22.13
74321;BMP280;62738;45.772;4.804;2023-07-22T02:22:39;99698.09;;;22.16
74321;BMP280;62738;45.772;4.804;2023-07-22T02:25:06;99698.28;;;22.41
74321;BMP280;62738;45.772;4.804;2023-07-22T02:27:33;99698.22;;;22.61
74321;BMP280;62738;45.772;4.804;2023-07-22T02:29:59;99709.91;;;22.71
74321;BMP280;62738;45.772;4.804;2023-07-22T02:32:26;99707.72;;;22.70
74321;BMP280;62738;45.772;4.804;2023-07-22T02:34:53;99702.56;;;22.84
74321;BMP280;62738;45.772;4.804;2023-07-22T02:37:19;99704.13;;;22.89
74321;BMP280;62738;45.772;4.804;2023-07-22T02:39:46;99700.94;;;22.79
74321;BMP280;62738;45.772;4.804;2023-07-22T02:42:13;99703.88;;;22.61
74321;BMP280;62738;45.772;4.804;2023-07-22T02:44:39;99700.16;;;22.35
74321;BMP280;62738;45.772;4.804;2023-07-22T02:47:06;99708.00;;;22.17
74321;BMP280;62738;45.772;4.804;2023-07-22T02:49:32;99713.94;;;22.05
74321;BMP280;62738;45.772;4.804;2023-07-22T02:51:59;99707.41;;;22.01
74321;BMP280;62738;45.772;4.804;2023-07-22T02:54:26;99713.38;;;22.09
74321;BMP280;62738;45.772;4.804;2023-07-22T02:56:52;99721.25;;;22.12
74321;BMP280;62738;45.772;4.804;2023-07-22T02:59:19;99718.00;;;22.20
74321;BMP280;62738;45.772;4.804;2023-07-22T03:01:46;99724.97;;;22.17
74321;BMP280;62738;45.772;4.804;2023-07-22T03:04:12;99740.38;;;21.94
74321;BMP280;62738;45.772;4.804;2023-07-22T03:06:40;99730.53;;;21.95
74321;BMP280;62738;45.772;4.804;2023-07-22T03:09:10;99721.84;;;22.09
74321;BMP280;62738;45.772;4.804;2023-07-22T03:11:37;99732.94;;;22.22
74321;BMP280;62738;45.772;4.804;2023-07-22T03:14:04;99729.31;;;22.20
74321;BMP280;62738;45.772;4.804;2023-07-22T03:16:30;99725.75;;;22.19
74321;BMP280;62738;45.772;4.804;2023-07-22T03:18:58;99732.88;;;22.40
74321;BMP280;62738;45.772;4.804;2023-07-22T03:21:25;99740.22;;;22.29
74321;BMP280;62738;45.772;4.804;2023-07-22T03:23:51;99742.41;;;22.31
74321;BMP280;62738;45.772;4.804;2023-07-22T03:26:18;99748.31;;;22.37
74321;BMP280;62738;45.772;4.804;2023-07-22T03:28:44;99730.53;;;22.34
74321;BMP280;62738;45.772;4.804;2023-07-22T03:31:11;99741.50;;;22.44
74321;BMP280;62738;45.772;4.804;2023-07-22T03:33:38;99743.19;;;22.33
74321;BMP280;62738;45.772;4.804;2023-07-22T03:36:05;99738.69;;;22.07
74321;BMP280;62738;45.772;4.804;2023-07-22T03:38:32;99743.81;;;22.10
74321;BMP280;62738;45.772;4.804;2023-07-22T03:40:58;99729.50;;;21.86
74321;BMP280;62738;45.772;4.804;2023-07-22T03:43:25;99736.44;;;21.83
74321;BMP280;62738;45.772;4.804;2023-07-22T03:45:52;99739.13;;;21.99
74321;BMP280;62738;45.772;4.804;2023-07-22T03:48:19;99738.13;;;21.90
74321;BMP280;62738;45.772;4.804;2023-07-22T03:50:45;99746.38;;;22.04
74321;BMP280;62738;45.772;4.804;2023-07-22T03:53:12;99749.16;;;22.02
74321;BMP280;62738;45.772;4.804;2023-07-22T03:55:39;99756.31;;;22.05
74321;BMP280;62738;45.772;4.804;2023-07-22T03:58:05;99762.91;;;22.12
74321;BMP280;62738;45.772;4.804;2023-07-22T04:00:32;99764.53;;;22.17
74321;BMP280;62738;45.772;4.804;2023-07-22T04:02:59;99766.16;;;22.22
74321;BMP280;62738;45.772;4.804;2023-07-22T04:05:26;99761.47;;;22.11
74321;BMP280;62738;45.772;4.804;2023-07-22T04:07:52;99767.94;;;22.13
74321;BMP280;62738;45.772;4.804;2023-07-22T04:10:19;99765.75;;;22.12
74321;BMP280;62738;45.772;4.804;2023-07-22T04:12:46;99767.94;;;22.13
74321;BMP280;62738;45.772;4.804;2023-07-22T04:15:12;99768.72;;;22.16
74321;BMP280;62738;45.772;4.804;2023-07-22T04:17:39;99761.19;;;22.22
74321;BMP280;62738;45.772;4.804;2023-07-22T04:20:07;99760.63;;;22.26
74321;BMP280;62738;45.772;4.804;2023-07-22T04:22:35;99757.09;;;22.25
74321;BMP280;62738;45.772;4.804;2023-07-22T04:25:02;99759.31;;;22.29
74321;BMP280;62738;45.772;4.804;2023-07-22T04:27:29;99761.91;;;22.23
74321;BMP280;62738;45.772;4.804;2023-07-22T04:29:55;99754.25;;;22.25
74321;BMP280;62738;45.772;4.804;2023-07-22T04:32:22;99758.41;;;22.05
74321;BMP280;62738;45.772;4.804;2023-07-22T04:34:49;99763.81;;;21.98
74321;BMP280;62738;45.772;4.804;2023-07-22T04:37:16;99766.16;;;22.04
74321;BMP280;62738;45.772;4.804;2023-07-22T04:39:47;99765.69;;;22.10
74321;BMP280;62738;45.772;4.804;2023-07-22T04:42:14;99772.13;;;22.12
74321;BMP280;62738;45.772;4.804;2023-07-22T04:44:41;99770.19;;;22.17
74321;BMP280;62738;45.772;4.804;2023-07-22T04:47:07;99765.03;;;22.31
74321;BMP280;62738;45.772;4.804;2023-07-22T04:49:34;99766.84;;;22.22
74321;BMP280;62738;45.772;4.804;2023-07-22T04:52:00;99758.47;;;22.24
74321;BMP280;62738;45.772;4.804;2023-07-22T04:54:28;99754.03;;;22.19
74321;BMP280;62738;45.772;4.804;2023-07-22T04:56:54;99760.88;;;22.14
74321;BMP280;62738;45.772;4.804;2023-07-22T04:59:21;99754.91;;;22.24
74321;BMP280;62738;45.772;4.804;2023-07-22T05:01:47;99767.28;;;22.34
74321;BMP280;62738;45.772;4.804;2023-07-22T05:04:14;99764.97;;;22.29
74321;BMP280;62738;45.772;4.804;2023-07-22T05:06:41;99773.97;;;22.23
74321;BMP280;62738;45.772;4.804;2023-07-22T05:09:07;99771.06;;;21.84
74321;BMP280;62738;45.772;4.804;2023-07-22T05:11:34;99771.31;;;21.72
74321;BMP280;62738;45.772;4.804;2023-07-22T05:14:01;99772.19;;;21.77
74321;BMP280;62738;45.772;4.804;2023-07-22T05:16:27;99778.88;;;21.85
74321;BMP280;62738;45.772;4.804;2023-07-22T05:18:55;99774.47;;;22.00
74321;BMP280;62738;45.772;4.804;2023-07-22T05:21:21;99778.81;;;22.21
74321;BMP280;62738;45.772;4.804;2023-07-22T05:23:48;99779.00;;;22.27
74321;BMP280;62738;45.772;4.804;2023-07-22T05:26:15;99784.03;;;22.28
74321;BMP280;62738;45.772;4.804;2023-07-22T05:28:41;99784.22;;;22.15
74321;BMP280;62738;45.772;4.804;2023-07-22T05:31:08;99782.94;;;22.18
74321;BMP280;62738;45.772;4.804;2023-07-22T05:33:35;99782.69;;;22.12
74321;BMP280;62738;45.772;4.804;2023-07-22T05:36:02;99789.56;;;22.07
74321;BMP280;62738;45.772;4.804;2023-07-22T05:38:29;99785.78;;;22.00
74321;BMP280;62738;45.772;4.804;2023-07-22T05:40:55;99778.25;;;22.07
74321;BMP280;62738;45.772;4.804;2023-07-22T05:43:22;99786.81;;;22.09
74321;BMP280;62738;45.772;4.804;2023-07-22T05:45:49;99791.84;;;22.10
74321;BMP280;62738;45.772;4.804;2023-07-22T05:48:16;99788.41;;;21.94
74321;BMP280;62738;45.772;4.804;2023-07-22T05:50:43;99797.81;;;22.01
74321;BMP280;62738;45.772;4.804;2023-07-22T05:53:10;99788.53;;;21.98
74321;BMP280;62738;45.772;4.804;2023-07-22T05:55:37;99800.16;;;22.06
74321;BMP280;62738;45.772;4.804;2023-07-22T05:58:04;99795.47;;;22.13
74321;BMP280;62738;45.772;4.804;2023-07-22T06:00:34;99797.72;;;22.16
74321;BMP280;62738;45.772;4.804;2023-07-22T06:03:01;99797.22;;;22.22
74321;BMP280;62738;45.772;4.804;2023-07-22T06:05:28;99793.09;;;22.44
74321;BMP280;62738;45.772;4.804;2023-07-22T06:07:55;99782.78;;;22.53
74321;BMP280;62738;45.772;4.804;2023-07-22T06:10:23;99784.44;;;22.60
74321;BMP280;62738;45.772;4.804;2023-07-22T06:12:50;99787.84;;;22.76
74321;BMP280;62738;45.772;4.804;2023-07-22T06:15:17;99781.22;;;22.89
74321;BMP280;62738;45.772;4.804;2023-07-22T06:17:43;99776.56;;;22.98
74321;BMP280;62738;45.772;4.804;2023-07-22T06:20:10;99778.22;;;23.05
74321;BMP280;62738;45.772;4.804;2023-07-22T06:22:37;99778.50;;;23.13
74321;BMP280;62738;45.772;4.804;2023-07-22T06:25:05;99773.75;;;23.20
74321;BMP280;62738;45.772;4.804;2023-07-22T06:27:32;99763.41;;;23.28
74321;BMP280;62738;45.772;4.804;2023-07-22T06:29:59;99772.22;;;23.38
74321;BMP280;62738;45.772;4.804;2023-07-22T06:32:25;99773.22;;;23.47
74321;BMP280;62738;45.772;4.804;2023-07-22T06:34:52;99767.97;;;23.61
74321;BMP280;62738;45.772;4.804;2023-07-22T06:37:19;99768.34;;;23.73
74321;BMP280;62738;45.772;4.804;2023-07-22T06:39:45;99770.06;;;24.08
74321;BMP280;62738;45.772;4.804;2023-07-22T06:42:12;99767.84;;;24.04
74321;BMP280;62738;45.772;4.804;2023-07-22T06:44:39;99775.78;;;24.10
74321;BMP280;62738;45.772;4.804;2023-07-22T06:47:06;99775.28;;;24.18
74321;BMP280;62738;45.772;4.804;2023-07-22T06:49:33;99767.50;;;24.18
74321;BMP280;62738;45.772;4.804;2023-07-22T06:51:59;99774.19;;;24.29
74321;BMP280;62738;45.772;4.804;2023-07-22T06:54:27;99770.94;;;24.40
74321;BMP280;62738;45.772;4.804;2023-07-22T06:56:54;99772.16;;;24.31
74321;BMP280;62738;45.772;4.804;2023-07-22T06:59:21;99776.94;;;24.25
74321;BMP280;62738;45.772;4.804;2023-07-22T07:01:48;99775.72;;;24.32
74321;BMP280;62738;45.772;4.804;2023-07-22T07:04:14;99765.50;;;24.48
74321;BMP280;62738;45.772;4.804;2023-07-22T07:06:41;99766.63;;;24.63
74321;BMP280;62738;45.772;4.804;2023-07-22T07:09:08;99774.81;;;24.79
74321;BMP280;62738;45.772;4.804;2023-07-22T07:11:34;99774.34;;;24.88
74321;BMP280;62738;45.772;4.804;2023-07-22T07:14:01;99768.13;;;24.94
74321;BMP280;62738;45.772;4.804;2023-07-22T07:16:30;99780.50;;;25.08
74321;BMP280;62738;45.772;4.804;2023-07-22T07:19:00;99785.53;;;25.10
74321;BMP280;62738;45.772;4.804;2023-07-22T07:21:27;99786.09;;;25.04
74321;BMP280;62738;45.772;4.804;2023-07-22T07:23:54;99790.00;;;24.89
74321;BMP280;62738;45.772;4.804;2023-07-22T07:26:21;99782.47;;;25.02
74321;BMP280;62738;45.772;4.804;2023-07-22T07:28:49;99790.31;;;25.03
74321;BMP280;62738;45.772;4.804;2023-07-22T07:31:19;99784.53;;;25.27
74321;BMP280;62738;45.772;4.804;2023-07-22T07:33:46;99790.28;;;25.31
74321;BMP280;62738;45.772;4.804;2023-07-22T07:36:13;99785.47;;;25.38
74321;BMP280;62738;45.772;4.804;2023-07-22T07:38:39;99779.44;;;25.53
74321;BMP280;62738;45.772;4.804;2023-07-22T07:41:06;99786.88;;;25.68
74321;BMP280;62738;45.772;4.804;2023-07-22T07:43:39;99786.53;;;25.86
74321;BMP280;62738;45.772;4.804;2023-07-22T07:46:26;99782.50;;;25.97
74321;BMP280;62738;45.772;4.804;2023-07-22T07:48:56;99789.63;;;25.98
74321;BMP280;62738;45.772;4.804;2023-07-22T07:51:25;99794.47;;;26.28
74321;BMP280;62738;45.772;4.804;2023-07-22T07:53:54;99795.16;;;26.26
74321;BMP280;62738;45.772;4.804;2023-07-22T07:56:21;99790.75;;;26.19
74321;BMP280;62738;45.772;4.804;2023-07-22T07:58:49;99791.78;;;26.36
74321;BMP280;62738;45.772;4.804;2023-07-22T08:01:16;99791.34;;;26.49
74321;BMP280;62738;45.772;4.804;2023-07-22T08:03:44;99787.81;;;26.51
74321;BMP280;62738;45.772;4.804;2023-07-22T08:06:11;99793.75;;;26.67
74321;BMP280;62738;45.772;4.804;2023-07-22T08:08:38;99791.19;;;26.81
74321;BMP280;62738;45.772;4.804;2023-07-22T08:11:12;99786.38;;;26.92
74321;BMP280;62738;45.772;4.804;2023-07-22T08:13:42;99782.25;;;27.01
74321;BMP280;62738;45.772;4.804;2023-07-22T08:16:12;99787.19;;;26.98
74321;BMP280;62738;45.772;4.804;2023-07-22T08:18:39;99783.66;;;27.00
74321;BMP280;62738;45.772;4.804;2023-07-22T08:21:06;99783.81;;;27.10
74321;BMP280;62738;45.772;4.804;2023-07-22T08:23:34;99780.16;;;27.03
74321;BMP280;62738;45.772;4.804;2023-07-22T08:26:03;99780.31;;;27.15
74321;BMP280;62738;45.772;4.804;2023-07-22T08:28:33;99776.88;;;27.21
74321;BMP280;62738;45.772;4.804;2023-07-22T08:30:59;99778.44;;;27.32
74321;BMP280;62738;45.772;4.804;2023-07-22T08:33:27;99782.78;;;27.37
74321;BMP280;62738;45.772;4.804;2023-07-22T08:36:08;99774.31;;;27.43
74321;BMP280;62738;45.772;4.804;2023-07-22T08:38:35;99779.44;;;27.53
74321;BMP280;62738;45.772;4.804;2023-07-22T08:41:01;99774.66;;;27.67
74321;BMP280;62738;45.772;4.804;2023-07-22T08:43:29;99780.44;;;27.75
74321;BMP280;62738;45.772;4.804;2023-07-22T08:46:01;99782.03;;;27.88
74321;BMP280;62738;45.772;4.804;2023-07-22T08:48:34;99768.53;;;27.91
74321;BMP280;62738;45.772;4.804;2023-07-22T08:51:10;99774.22;;;27.91
74321;BMP280;62738;45.772;4.804;2023-07-22T08:53:39;99769.19;;;27.87
74321;BMP280;62738;45.772;4.804;2023-07-22T08:56:07;99769.75;;;27.74
74321;BMP280;62738;45.772;4.804;2023-07-22T08:58:34;99769.25;;;27.91
74321;BMP280;62738;45.772;4.804;2023-07-22T09:01:02;99768.69;;;28.07
74321;BMP280;62738;45.772;4.804;2023-07-22T09:03:29;99763.81;;;28.16
74321;BMP280;62738;45.772;4.804;2023-07-22T09:05:56;99765.19;;;28.13
74321;BMP280;62738;45.772;4.804;2023-07-22T09:08:23;99775.69;;;27.92
74321;BMP280;62738;45.772;4.804;2023-07-22T09:10:50;99778.66;;;28.06
74321;BMP280;62738;45.772;4.804;2023-07-22T09:13:18;99777.44;;;28.23
74321;BMP280;62738;45.772;4.804;2023-07-22T09:15:47;99773.97;;;28.35
74321;BMP280;62738;45.772;4.804;2023-07-22T09:18:16;99769.22;;;28.60
74321;BMP280;62738;45.772;4.804;2023-07-22T09:20:43;99772.13;;;28.64
74321;BMP280;62738;45.772;4.804;2023-07-22T09:23:11;99771.56;;;28.85
74321;BMP280;62738;45.772;4.804;2023-07-22T09:25:41;99777.78;;;28.60
74321;BMP280;62738;45.772;4.804;2023-07-22T09:28:09;99776.84;;;28.37
74321;BMP280;62738;45.772;4.804;2023-07-22T09:30:38;99771.22;;;28.45
74321;BMP280;62738;45.772;4.804;2023-07-22T09:33:07;99767.22;;;28.80
74321;BMP280;62738;45.772;4.804;2023-07-22T09:35:46;99770.94;;;29.01
74321;BMP280;62738;45.772;4.804;2023-07-22T09:38:13;99766.03;;;29.15
74321;BMP280;62738;45.772;4.804;2023-07-22T09:40:42;99766.81;;;29.30
74321;BMP280;62738;45.772;4.804;2023-07-22T09:43:11;99771.22;;;29.41
74321;BMP280;62738;45.772;4.804;2023-07-22T09:45:41;99766.88;;;29.34
74321;BMP280;62738;45.772;4.804;2023-07-22T09:48:09;99768.22;;;29.19
74321;BMP280;62738;45.772;4.804;2023-07-22T09:50:36;99764.47;;;28.92
74321;BMP280;62738;45.772;4.804;2023-07-22T09:53:04;99767.44;;;29.12
74321;BMP280;62738;45.772;4.804;2023-07-22T09:55:32;99758.91;;;29.16
74321;BMP280;62738;45.772;4.804;2023-07-22T09:58:00;99757.50;;;29.20
74321;BMP280;62738;45.772;4.804;2023-07-22T10:00:31;99754.72;;;29.34
74321;BMP280;62738;45.772;4.804;2023-07-22T10:03:03;99751.28;;;29.65
74321;BMP280;62738;45.772;4.804;2023-07-22T10:05:37;99758.47;;;29.76
74321;BMP280;62738;45.772;4.804;2023-07-22T10:08:05;99749.94;;;29.93
74321;BMP280;62738;45.772;4.804;2023-07-22T10:10:34;99755.69;;;29.99
74321;BMP280;62738;45.772;4.804;2023-07-22T10:13:02;99759.28;;;30.11
74321;BMP280;62738;45.772;4.804;2023-07-22T10:15:30;99750.00;;;30.27
74321;BMP280;62738;45.772;4.804;2023-07-22T10:17:57;99754.31;;;30.38
74321;BMP280;62738;45.772;4.804;2023-07-22T10:20:24;99757.84;;;30.49
74321;BMP280;62738;45.772;4.804;2023-07-22T10:22:51;99745.72;;;30.40
74321;BMP280;62738;45.772;4.804;2023-07-22T10:25:19;99748.56;;;30.38
74321;BMP280;62738;45.772;4.804;2023-07-22T10:27:49;99749.28;;;30.49
74321;BMP280;62738;45.772;4.804;2023-07-22T10:30:17;99752.13;;;30.47
74321;BMP280;62738;45.772;4.804;2023-07-22T10:32:49;99748.53;;;30.02
74321;BMP280;62738;45.772;4.804;2023-07-22T10:38:27;99747.00;;;29.68
74321;BMP280;62738;45.772;4.804;2023-07-22T10:40:54;99739.84;;;29.65
74321;BMP280;62738;45.772;4.804;2023-07-22T10:43:31;99737.66;;;29.58
74321;BMP280;62738;45.772;4.804;2023-07-22T10:46:05;99736.91;;;29.45
74321;BMP280;62738;45.772;4.804;2023-07-22T10:48:35;99731.16;;;29.37
74321;BMP280;62738;45.772;4.804;2023-07-22T10:51:11;99734.78;;;29.46
74321;BMP280;62738;45.772;4.804;2023-07-22T10:53:56;99727.00;;;29.70
74321;BMP280;62738;45.772;4.804;2023-07-22T10:56:22;99720.63;;;29.84
74321;BMP280;62738;45.772;4.804;2023-07-22T11:12:13;99713.47;;;29.97
74321;BMP280;62738;45.772;4.804;2023-07-22T11:17:11;99707.78;;;30.46
74321;BMP280;62738;45.772;4.804;2023-07-22T11:19:39;99715.63;;;30.53
74321;BMP280;62738;45.772;4.804;2023-07-22T11:22:06;99704.22;;;30.33
74321;BMP280;62738;45.772;4.804;2023-07-22T11:24:34;99708.47;;;30.54
74321;BMP280;62738;45.772;4.804;2023-07-22T11:27:05;99702.03;;;30.48
74321;BMP280;62738;45.772;4.804;2023-07-22T11:29:33;99702.03;;;30.50
74321;BMP280;62738;45.772;4.804;2023-07-22T11:31:59;99697.03;;;30.30
74321;BMP280;62738;45.772;4.804;2023-07-22T11:34:26;99702.78;;;30.16
74321;BMP280;62738;45.772;4.804;2023-07-22T11:36:54;99702.06;;;30.46
74321;BMP280;62738;45.772;4.804;2023-07-22T11:39:23;99698.44;;;30.65
74321;BMP280;62738;45.772;4.804;2023-07-22T11:41:51;99698.44;;;30.67
74321;BMP280;62738;45.772;4.804;2023-07-22T11:44:19;99692.00;;;30.75
74321;BMP280;62738;45.772;4.804;2023-07-22T11:47:05;99687.63;;;30.96
74321;BMP280;62738;45.772;4.804;2023-07-22T11:49:41;99685.31;;;31.31
74321;BMP280;62738;45.772;4.804;2023-07-22T11:52:16;99687.34;;;31.52
74321;BMP280;62738;45.772;4.804;2023-07-22T11:54:47;99683.69;;;31.66
74321;BMP280;62738;45.772;4.804;2023-07-22T11:59:45;99677.69;;;32.00
74321;BMP280;62738;45.772;4.804;2023-07-22T12:02:13;99681.25;;;32.05
74321;BMP280;62738;45.772;4.804;2023-07-22T12:04:40;99676.16;;;32.13
74321;BMP280;62738;45.772;4.804;2023-07-22T12:07:24;99669.50;;;32.35
74321;BMP280;62738;45.772;4.804;2023-07-22T12:09:55;99673.09;;;32.33
74321;BMP280;62738;45.772;4.804;2023-07-22T12:12:35;99673.09;;;32.33
74321;BMP280;62738;45.772;4.804;2023-07-22T12:15:17;99665.88;;;32.36
74321;BMP280;62738;45.772;4.804;2023-07-22T12:17:48;99655.78;;;32.42
74321;BMP280;62738;45.772;4.804;2023-07-22T12:20:17;99657.97;;;32.39
74321;BMP280;62738;45.772;4.804;2023-07-22T12:22:45;99663.13;;;32.26
74321;BMP280;62738;45.772;4.804;2023-07-22T12:25:11;99666.84;;;32.13
74321;BMP280;62738;45.772;4.804;2023-07-22T12:27:38;99666.88;;;32.07
74321;BMP280;62738;45.772;4.804;2023-07-22T12:30:05;99654.69;;;32.08
74321;BMP280;62738;45.772;4.804;2023-07-22T12:32:33;99653.81;;;31.23
74321;BMP280;62738;45.772;4.804;2023-07-22T12:35:00;99656.94;;;30.60
74321;BMP280;62738;45.772;4.804;2023-07-22T12:37:29;99654.78;;;30.61
74321;BMP280;62738;45.772;4.804;2023-07-22T12:39:56;99641.81;;;30.80
74321;BMP280;62738;45.772;4.804;2023-07-22T12:42:23;99643.84;;;31.10
74321;BMP280;62738;45.772;4.804;2023-07-22T12:44:49;99641.66;;;31.24
74321;BMP280;62738;45.772;4.804;2023-07-22T12:47:16;99638.56;;;31.62
74321;BMP280;62738;45.772;4.804;2023-07-22T12:49:43;99634.78;;;31.86
74321;BMP280;62738;45.772;4.804;2023-07-22T12:52:09;99630.97;;;32.14
74321;BMP280;62738;45.772;4.804;2023-07-22T12:54:37;99628.56;;;32.36
74321;BMP280;62738;45.772;4.804;2023-07-22T12:57:04;99625.56;;;32.49
74321;BMP280;62738;45.772;4.804;2023-07-22T12:59:31;99624.84;;;32.50
74321;BMP280;62738;45.772;4.804;2023-07-22T13:01:58;99619.75;;;32.55
